Terminal Aerodrome Forecast
Issued by NWS Cleveland, OH

Home | Current Version | Previous Version | Text Only | Print | Product List | Glossary Off
Versions: 1 2 3 4 5 6 7 8 9 10 11 12 13 14 15

000
FTUS41 KCLE 172300
TAFERI
TAF
KERI 172329Z 1800/1824 17008KT P6SM BKN250
     FM180700 18012G20KT P6SM SCT150 OVC250
     FM181500 22010KT P6SM OVC100
     FM181900 27010KT P6SM VCSH SCT040 OVC100=

USA.gov is the U.S. government's official web portal to all federal, state and local government web resources and services.